createdAt,value
2018-12-14T00:02:38.432Z,12.30
2018-12-14T00:07:35.190Z,11.97
2018-12-14T00:12:30.984Z,12.67
2018-12-14T00:17:26.771Z,12.37
2018-12-14T00:22:22.525Z,12.57
2018-12-14T00:27:18.553Z,11.83
2018-12-14T00:32:14.911Z,12.33
2018-12-14T00:37:10.820Z,11.93
2018-12-14T00:42:06.610Z,13.43
2018-12-14T00:47:02.381Z,13.83
2018-12-14T00:51:58.221Z,12.07
2018-12-14T00:56:53.971Z,13.43
2018-12-14T01:01:49.790Z,12.70
2018-12-14T01:06:45.572Z,13.00
2018-12-14T01:11:41.470Z,12.90
2018-12-14T01:16:37.258Z,11.70
2018-12-14T01:21:33.025Z,12.47
2018-12-14T01:26:28.836Z,11.83
2018-12-14T01:31:24.661Z,11.63
2018-12-14T01:36:20.435Z,12.40
2018-12-14T01:41:16.372Z,12.20
2018-12-14T01:46:12.146Z,12.30
2018-12-14T01:51:08.044Z,11.97
2018-12-14T01:56:03.859Z,12.60
2018-12-14T02:00:59.638Z,11.57
2018-12-14T02:05:55.404Z,11.63
2018-12-14T02:10:51.183Z,12.07
2018-12-14T02:15:46.977Z,12.00
2018-12-14T02:20:42.755Z,12.67
2018-12-14T02:25:38.518Z,11.87
2018-12-14T02:30:41.511Z,11.77
2018-12-14T02:35:37.289Z,12.50
2018-12-14T02:40:33.071Z,12.50
2018-12-14T02:45:28.949Z,12.13
2018-12-14T02:50:24.701Z,12.17
2018-12-14T02:55:20.496Z,12.13
2018-12-14T03:00:16.282Z,11.80
2018-12-14T03:05:12.278Z,11.33
2018-12-14T03:10:08.114Z,11.80
2018-12-14T03:15:04.215Z,11.43
2018-12-14T03:20:00.236Z,11.73
2018-12-14T03:24:56.277Z,11.53
2018-12-14T03:29:52.163Z,11.57
2018-12-14T03:34:47.975Z,11.70
2018-12-14T03:39:43.797Z,10.90
2018-12-14T03:44:39.567Z,11.17
2018-12-14T03:49:35.389Z,12.03
2018-12-14T03:54:31.178Z,11.43
2018-12-14T03:59:27.006Z,11.47
2018-12-14T04:04:22.832Z,12.07
2018-12-14T04:09:18.615Z,12.37
2018-12-14T04:14:14.436Z,11.13
2018-12-14T04:19:10.223Z,12.00
2018-12-14T04:24:06.127Z,10.83
2018-12-14T04:29:02.048Z,11.60
2018-12-14T04:33:57.871Z,11.30
2018-12-14T04:38:53.645Z,11.63
2018-12-14T04:43:49.419Z,11.53
2018-12-14T04:48:45.185Z,10.37
2018-12-14T04:53:41.032Z,11.80
2018-12-14T04:58:36.898Z,11.53
2018-12-14T05:03:32.672Z,10.47
2018-12-14T05:08:28.441Z,12.00
2018-12-14T05:13:24.231Z,11.10
2018-12-14T05:18:20.051Z,14.50
2018-12-14T05:23:15.864Z,19.60
2018-12-14T05:28:11.948Z,19.93
2018-12-14T05:33:07.672Z,23.37
2018-12-14T05:38:03.491Z,17.63
2018-12-14T05:43:02.599Z,14.53
2018-12-14T05:47:57.110Z,12.20
2018-12-14T05:52:52.915Z,12.83
2018-12-14T05:57:49.678Z,12.10
2018-12-14T06:02:45.436Z,12.23
2018-12-14T06:07:41.471Z,11.00
2018-12-14T06:12:37.271Z,11.63
2018-12-14T06:17:34.129Z,11.57
2018-12-14T06:22:29.896Z,12.23
2018-12-14T06:27:25.660Z,12.40
2018-12-14T06:32:21.541Z,11.73
2018-12-14T06:37:17.602Z,11.67
2018-12-14T06:42:13.826Z,12.30
2018-12-14T06:47:09.618Z,11.80
2018-12-14T06:52:05.462Z,12.30
2018-12-14T06:57:01.249Z,12.20
2018-12-14T07:01:57.028Z,12.33
2018-12-14T07:06:52.800Z,12.67
2018-12-14T07:11:48.620Z,12.77
2018-12-14T07:16:44.438Z,12.43
2018-12-14T07:21:40.294Z,12.47
2018-12-14T07:26:36.361Z,12.87
2018-12-14T07:31:32.623Z,15.30
2018-12-14T07:36:28.542Z,16.20
2018-12-14T07:41:24.351Z,12.63
2018-12-14T07:46:20.581Z,13.33
2018-12-14T07:51:16.516Z,17.10
2018-12-14T07:56:13.775Z,18.47
2018-12-14T08:01:09.611Z,20.40
2018-12-14T08:06:05.403Z,25.83
2018-12-14T08:11:01.364Z,14.20
2018-12-14T08:15:57.238Z,13.83
2018-12-14T08:20:53.040Z,12.40
2018-12-14T08:25:48.858Z,13.33
2018-12-14T08:30:44.675Z,14.43
2018-12-14T08:35:40.459Z,15.90
2018-12-14T08:40:36.286Z,14.93
2018-12-14T08:45:32.194Z,14.43
2018-12-14T08:50:27.966Z,13.37
2018-12-14T08:55:23.788Z,12.37
2018-12-14T09:00:19.614Z,11.67
2018-12-14T09:05:15.430Z,13.17
2018-12-14T09:10:11.296Z,13.70
2018-12-14T09:15:07.090Z,13.33
2018-12-14T09:20:03.354Z,12.33
2018-12-14T09:24:59.192Z,11.77
2018-12-14T09:29:54.972Z,12.77
2018-12-14T09:34:50.816Z,12.40
2018-12-14T09:39:46.630Z,13.33
2018-12-14T09:44:42.378Z,12.67
2018-12-14T09:49:38.136Z,11.53
2018-12-14T09:54:33.960Z,11.63
2018-12-14T09:59:29.847Z,12.93
2018-12-14T10:04:25.651Z,12.70
2018-12-14T10:09:21.474Z,12.80
2018-12-14T10:14:17.247Z,12.27
2018-12-14T10:19:13.176Z,13.13
2018-12-14T10:24:08.967Z,11.10
2018-12-14T10:29:04.749Z,12.77
2018-12-14T10:34:00.666Z,12.93
2018-12-14T10:38:56.594Z,12.53
2018-12-14T10:43:52.391Z,12.33
2018-12-14T10:48:48.196Z,11.83
2018-12-14T10:53:43.982Z,12.47
2018-12-14T10:58:39.807Z,12.70
2018-12-14T11:03:35.640Z,11.93
2018-12-14T11:08:31.484Z,12.53
2018-12-14T11:13:27.254Z,13.07
2018-12-14T11:18:23.049Z,12.57
2018-12-14T11:23:18.839Z,12.23
2018-12-14T11:28:14.613Z,11.67
2018-12-14T11:33:10.540Z,12.43
2018-12-14T11:38:06.330Z,11.60
2018-12-14T11:43:02.156Z,10.90
2018-12-14T11:47:57.967Z,10.17
2018-12-14T11:52:53.784Z,10.80
2018-12-14T11:57:49.577Z,10.40
2018-12-14T12:02:45.365Z,10.40
2018-12-14T12:07:42.389Z,10.27
2018-12-14T12:12:38.270Z,9.17
2018-12-14T12:17:35.366Z,9.77
2018-12-14T12:22:31.136Z,9.53
2018-12-14T12:27:27.185Z,9.10
2018-12-14T12:32:23.092Z,8.93
2018-12-14T12:37:18.912Z,9.93
2018-12-14T12:42:14.704Z,9.17
2018-12-14T12:47:10.482Z,9.20
2018-12-14T12:52:06.279Z,9.80
2018-12-14T12:57:02.090Z,7.77
2018-12-14T13:01:58.278Z,8.47
2018-12-14T13:06:54.097Z,8.70
2018-12-14T13:11:49.878Z,8.93
2018-12-14T13:16:45.664Z,9.17
2018-12-14T13:21:41.442Z,8.43
2018-12-14T13:26:37.223Z,13.60
2018-12-14T13:31:33.025Z,10.00
2018-12-14T13:36:28.854Z,9.33
2018-12-14T13:41:24.658Z,8.67
2018-12-14T13:46:20.412Z,8.60
2018-12-14T13:51:16.256Z,9.27
2018-12-14T13:56:12.444Z,9.43
2018-12-14T14:01:08.244Z,9.47
2018-12-14T14:06:04.028Z,11.57
2018-12-14T14:10:59.818Z,12.57
2018-12-14T14:15:55.580Z,10.73
2018-12-14T14:20:51.384Z,10.17
2018-12-14T14:25:47.538Z,10.23
2018-12-14T14:30:43.289Z,9.53
2018-12-14T14:35:39.109Z,10.03
2018-12-14T14:40:34.937Z,8.90
2018-12-14T14:45:30.720Z,9.40
2018-12-14T14:50:26.504Z,9.17
2018-12-14T14:55:22.326Z,8.93
2018-12-14T15:00:18.137Z,8.57
2018-12-14T15:05:13.963Z,8.87
2018-12-14T15:10:09.780Z,8.67
2018-12-14T15:15:06.840Z,8.73
2018-12-14T15:20:03.184Z,9.30
2018-12-14T15:24:58.974Z,10.23
2018-12-14T15:29:54.873Z,8.57
2018-12-14T15:34:50.702Z,7.70
2018-12-14T15:39:46.460Z,7.70
2018-12-14T15:44:42.268Z,7.10
2018-12-14T15:49:38.080Z,7.10
2018-12-14T15:54:33.880Z,9.80
2018-12-14T15:59:29.684Z,8.27
2018-12-14T16:04:25.451Z,7.73
2018-12-14T16:09:21.265Z,7.90
2018-12-14T16:14:17.293Z,8.60
2018-12-14T16:19:13.127Z,8.80
2018-12-14T16:24:08.947Z,9.27
2018-12-14T16:29:04.867Z,9.53
2018-12-14T16:34:00.794Z,8.03
2018-12-14T16:38:56.832Z,7.93
2018-12-14T16:43:52.646Z,7.73
2018-12-14T16:48:48.412Z,7.20
2018-12-14T16:53:50.402Z,10.87
2018-12-14T16:58:46.196Z,8.83
2018-12-14T17:03:41.980Z,7.70
2018-12-14T17:08:37.784Z,6.23
2018-12-14T17:13:33.544Z,7.37
2018-12-14T17:18:29.342Z,8.40
2018-12-14T17:23:25.124Z,8.60
2018-12-14T17:28:20.929Z,8.80
2018-12-14T17:33:16.702Z,8.23
2018-12-14T17:38:12.572Z,7.60
2018-12-14T17:43:08.429Z,7.40
2018-12-14T17:48:04.201Z,7.13
2018-12-14T17:53:00.018Z,5.90
2018-12-14T17:57:55.842Z,6.40
2018-12-14T18:02:51.642Z,5.47
2018-12-14T18:07:47.454Z,6.40
2018-12-14T18:12:43.220Z,9.27
2018-12-14T18:17:39.067Z,7.00
2018-12-14T18:22:35.197Z,6.40
2018-12-14T18:27:31.007Z,6.40
2018-12-14T18:32:27.147Z,6.37
2018-12-14T18:37:22.910Z,6.10
2018-12-14T18:42:18.730Z,6.07
2018-12-14T18:47:15.483Z,6.10
2018-12-14T18:52:11.303Z,6.63
2018-12-14T18:57:07.108Z,7.17
2018-12-14T19:02:02.886Z,7.70
2018-12-14T19:06:59.006Z,7.40
2018-12-14T19:11:54.786Z,6.60
2018-12-14T19:16:50.578Z,7.33
2018-12-14T19:21:46.350Z,7.87
2018-12-14T19:26:42.170Z,8.30
2018-12-14T19:31:38.037Z,7.37
2018-12-14T19:36:33.833Z,7.70
2018-12-14T19:41:29.613Z,7.77
2018-12-14T19:46:25.405Z,10.03
2018-12-14T19:51:21.178Z,8.40
2018-12-14T19:56:16.974Z,8.83
2018-12-14T20:01:12.872Z,8.37
2018-12-14T20:06:08.649Z,9.67
2018-12-14T20:11:04.478Z,9.50
2018-12-14T20:16:00.273Z,9.13
2018-12-14T20:20:57.109Z,8.60
2018-12-14T20:25:53.060Z,7.43
2018-12-14T20:30:48.858Z,8.13
2018-12-14T20:35:44.622Z,8.37
2018-12-14T20:40:40.526Z,7.80
2018-12-14T20:45:36.318Z,8.00
2018-12-14T20:50:32.139Z,7.07
2018-12-14T20:55:27.969Z,6.97
2018-12-14T21:00:23.737Z,7.30
2018-12-14T21:05:19.549Z,7.17
2018-12-14T21:10:16.381Z,7.60
2018-12-14T21:15:12.168Z,8.07
2018-12-14T21:20:08.065Z,9.20
2018-12-14T21:25:04.082Z,10.30
2018-12-14T21:29:59.883Z,9.83
2018-12-14T21:34:55.632Z,12.30
2018-12-14T21:39:51.451Z,10.47
2018-12-14T21:44:47.254Z,8.83
2018-12-14T21:49:43.057Z,9.27
2018-12-14T21:54:38.987Z,9.27
2018-12-14T21:59:34.840Z,10.20
2018-12-14T22:04:31.172Z,9.50
2018-12-14T22:09:27.122Z,9.17
2018-12-14T22:14:22.933Z,9.27
2018-12-14T22:19:18.697Z,8.57
2018-12-14T22:24:14.500Z,7.83
2018-12-14T22:29:10.270Z,8.50
2018-12-14T22:34:06.076Z,8.77
2018-12-14T22:39:02.139Z,9.10
2018-12-14T22:43:57.926Z,8.57
2018-12-14T22:48:53.702Z,9.07
2018-12-14T22:53:49.509Z,10.63
2018-12-14T22:58:45.371Z,10.80
2018-12-14T23:03:41.471Z,10.73
2018-12-14T23:08:37.229Z,10.63
2018-12-14T23:13:33.034Z,10.27
2018-12-14T23:18:28.800Z,11.10
2018-12-14T23:23:24.596Z,11.40
2018-12-14T23:28:20.364Z,11.73
2018-12-14T23:33:16.169Z,11.30
2018-12-14T23:38:11.945Z,12.00
2018-12-14T23:43:07.685Z,11.73
2018-12-14T23:48:03.478Z,11.67
2018-12-14T23:52:59.318Z,12.57
2018-12-14T23:57:55.120Z,12.00
